sensor_id;sensor_type;location;lat;lon;timestamp;P1;P2;P0
47810;PMS5003;33575;52.600;7.318;2024-03-23T00:55:25;17;9;
47810;PMS5003;33575;52.600;7.318;2024-03-23T00:57:56;16;7;
47810;PMS5003;33575;52.600;7.318;2024-03-23T01:00:27;10;8;
47810;PMS5003;33575;52.600;7.318;2024-03-23T01:02:57;10;9;
47810;PMS5003;33575;52.600;7.318;2024-03-23T01:05:27;13;8;
47810;PMS5003;33575;52.600;7.318;2024-03-23T01:07:58;12;9;
47810;PMS5003;33575;52.600;7.318;2024-03-23T01:10:28;10;10;
47810;PMS5003;33575;52.600;7.318;2024-03-23T01:12:59;9;8;
47810;PMS5003;33575;52.600;7.318;2024-03-23T01:15:30;13;10;
47810;PMS5003;33575;52.600;7.318;2024-03-23T01:18:00;11;10;
47810;PMS5003;33575;52.600;7.318;2024-03-23T01:20:31;11;9;
47810;PMS5003;33575;52.600;7.318;2024-03-23T01:23:03;14;10;
47810;PMS5003;33575;52.600;7.318;2024-03-23T01:25:32;16;12;
47810;PMS5003;33575;52.600;7.318;2024-03-23T01:28:03;20;14;
47810;PMS5003;33575;52.600;7.318;2024-03-23T01:30:33;17;13;
47810;PMS5003;33575;52.600;7.318;2024-03-23T01:33:03;17;13;
47810;PMS5003;33575;52.600;7.318;2024-03-23T01:35:33;16;14;
47810;PMS5003;33575;52.600;7.318;2024-03-23T01:38:04;13;11;
47810;PMS5003;33575;52.600;7.318;2024-03-23T01:40:35;13;13;
47810;PMS5003;33575;52.600;7.318;2024-03-23T01:43:06;16;13;
47810;PMS5003;33575;52.600;7.318;2024-03-23T01:45:36;12;11;
47810;PMS5003;33575;52.600;7.318;2024-03-23T01:48:07;14;13;
47810;PMS5003;33575;52.600;7.318;2024-03-23T01:50:37;17;12;
47810;PMS5003;33575;52.600;7.318;2024-03-23T01:53:07;10;8;
47810;PMS5003;33575;52.600;7.318;2024-03-23T01:55:38;10;10;
47810;PMS5003;33575;52.600;7.318;2024-03-23T01:58:08;15;13;
47810;PMS5003;33575;52.600;7.318;2024-03-23T02:00:39;13;12;
47810;PMS5003;33575;52.600;7.318;2024-03-23T02:05:40;15;12;
47810;PMS5003;33575;52.600;7.318;2024-03-23T02:08:10;11;9;
47810;PMS5003;33575;52.600;7.318;2024-03-23T02:10:41;17;13;
47810;PMS5003;33575;52.600;7.318;2024-03-23T02:13:11;16;13;
47810;PMS5003;33575;52.600;7.318;2024-03-23T02:15:42;19;14;
47810;PMS5003;33575;52.600;7.318;2024-03-23T02:18:12;11;11;
47810;PMS5003;33575;52.600;7.318;2024-03-23T02:20:42;17;12;
47810;PMS5003;33575;52.600;7.318;2024-03-23T02:23:13;9;8;
47810;PMS5003;33575;52.600;7.318;2024-03-23T02:25:43;11;8;
47810;PMS5003;33575;52.600;7.318;2024-03-23T02:28:14;10;9;
47810;PMS5003;33575;52.600;7.318;2024-03-23T02:30:44;16;10;
47810;PMS5003;33575;52.600;7.318;2024-03-23T02:33:14;24;13;
47810;PMS5003;33575;52.600;7.318;2024-03-23T02:35:45;13;11;
47810;PMS5003;33575;52.600;7.318;2024-03-23T02:38:15;13;11;
47810;PMS5003;33575;52.600;7.318;2024-03-23T02:40:46;10;10;
47810;PMS5003;33575;52.600;7.318;2024-03-23T02:43:16;16;12;
47810;PMS5003;33575;52.600;7.318;2024-03-23T02:45:47;12;9;
47810;PMS5003;33575;52.600;7.318;2024-03-23T02:48:17;19;12;
47810;PMS5003;33575;52.600;7.318;2024-03-23T02:50:48;24;13;
47810;PMS5003;33575;52.600;7.318;2024-03-23T02:53:18;11;10;
47810;PMS5003;33575;52.600;7.318;2024-03-23T02:55:48;15;9;
47810;PMS5003;33575;52.600;7.318;2024-03-23T02:58:19;11;8;
47810;PMS5003;33575;52.600;7.318;2024-03-23T03:00:49;9;8;
47810;PMS5003;33575;52.600;7.318;2024-03-23T03:03:20;11;9;
47810;PMS5003;33575;52.600;7.318;2024-03-23T03:05:54;18;13;
47810;PMS5003;33575;52.600;7.318;2024-03-23T03:08:20;13;10;
47810;PMS5003;33575;52.600;7.318;2024-03-23T03:10:51;9;8;
47810;PMS5003;33575;52.600;7.318;2024-03-23T03:13:21;13;10;
47810;PMS5003;33575;52.600;7.318;2024-03-23T03:15:52;16;11;
47810;PMS5003;33575;52.600;7.318;2024-03-23T03:18:23;12;11;
47810;PMS5003;33575;52.600;7.318;2024-03-23T03:20:54;15;11;
47810;PMS5003;33575;52.600;7.318;2024-03-23T03:23:23;12;9;
47810;PMS5003;33575;52.600;7.318;2024-03-23T03:25:53;14;10;
47810;PMS5003;33575;52.600;7.318;2024-03-23T03:28:24;9;8;
47810;PMS5003;33575;52.600;7.318;2024-03-23T03:30:54;14;12;
47810;PMS5003;33575;52.600;7.318;2024-03-23T03:33:25;16;10;
47810;PMS5003;33575;52.600;7.318;2024-03-23T03:35:55;15;10;
47810;PMS5003;33575;52.600;7.318;2024-03-23T03:38:26;9;8;
47810;PMS5003;33575;52.600;7.318;2024-03-23T03:40:56;11;10;
47810;PMS5003;33575;52.600;7.318;2024-03-23T03:43:27;15;12;
47810;PMS5003;33575;52.600;7.318;2024-03-23T03:45:59;10;10;
47810;PMS5003;33575;52.600;7.318;2024-03-23T03:48:28;14;11;
47810;PMS5003;33575;52.600;7.318;2024-03-23T03:50:59;13;11;
47810;PMS5003;33575;52.600;7.318;2024-03-23T03:53:29;11;7;
47810;PMS5003;33575;52.600;7.318;2024-03-23T03:56:00;19;13;
47810;PMS5003;33575;52.600;7.318;2024-03-23T03:58:31;12;9;
47810;PMS5003;33575;52.600;7.318;2024-03-23T04:01:01;14;9;
47810;PMS5003;33575;52.600;7.318;2024-03-23T04:03:32;10;8;
47810;PMS5003;33575;52.600;7.318;2024-03-23T04:06:02;10;10;
47810;PMS5003;33575;52.600;7.318;2024-03-23T04:08:32;13;9;
47810;PMS5003;33575;52.600;7.318;2024-03-23T04:11:03;11;9;
47810;PMS5003;33575;52.600;7.318;2024-03-23T04:13:33;14;10;
47810;PMS5003;33575;52.600;7.318;2024-03-23T04:16:04;11;10;
47810;PMS5003;33575;52.600;7.318;2024-03-23T04:18:35;8;8;
47810;PMS5003;33575;52.600;7.318;2024-03-23T04:21:05;8;8;
47810;PMS5003;33575;52.600;7.318;2024-03-23T04:23:36;13;10;
47810;PMS5003;33575;52.600;7.318;2024-03-23T04:26:06;14;9;
47810;PMS5003;33575;52.600;7.318;2024-03-23T04:28:37;12;9;
47810;PMS5003;33575;52.600;7.318;2024-03-23T04:31:07;9;8;
47810;PMS5003;33575;52.600;7.318;2024-03-23T04:33:38;14;10;
47810;PMS5003;33575;52.600;7.318;2024-03-23T04:36:09;9;8;
47810;PMS5003;33575;52.600;7.318;2024-03-23T04:38:40;17;12;
47810;PMS5003;33575;52.600;7.318;2024-03-23T04:41:10;10;9;
47810;PMS5003;33575;52.600;7.318;2024-03-23T04:43:40;13;9;
47810;PMS5003;33575;52.600;7.318;2024-03-23T04:46:11;11;10;
47810;PMS5003;33575;52.600;7.318;2024-03-23T04:48:42;12;12;
47810;PMS5003;33575;52.600;7.318;2024-03-23T04:53:43;8;7;
47810;PMS5003;33575;52.600;7.318;2024-03-23T04:56:13;12;8;
47810;PMS5003;33575;52.600;7.318;2024-03-23T04:58:44;12;11;
47810;PMS5003;33575;52.600;7.318;2024-03-23T05:01:15;14;9;
47810;PMS5003;33575;52.600;7.318;2024-03-23T05:03:45;13;10;
47810;PMS5003;33575;52.600;7.318;2024-03-23T05:06:15;45;20;
47810;PMS5003;33575;52.600;7.318;2024-03-23T05:08:46;16;10;
47810;PMS5003;33575;52.600;7.318;2024-03-23T05:11:16;7;7;
47810;PMS5003;33575;52.600;7.318;2024-03-23T05:13:46;8;7;
47810;PMS5003;33575;52.600;7.318;2024-03-23T05:16:17;13;9;
47810;PMS5003;33575;52.600;7.318;2024-03-23T05:18:47;13;10;
47810;PMS5003;33575;52.600;7.318;2024-03-23T05:21:18;11;10;
47810;PMS5003;33575;52.600;7.318;2024-03-23T05:23:48;13;13;
47810;PMS5003;33575;52.600;7.318;2024-03-23T05:26:19;13;9;
47810;PMS5003;33575;52.600;7.318;2024-03-23T05:28:50;9;9;
47810;PMS5003;33575;52.600;7.318;2024-03-23T05:31:23;9;9;
47810;PMS5003;33575;52.600;7.318;2024-03-23T05:33:51;12;11;
47810;PMS5003;33575;52.600;7.318;2024-03-23T05:36:21;12;9;
47810;PMS5003;33575;52.600;7.318;2024-03-23T05:38:51;13;11;
47810;PMS5003;33575;52.600;7.318;2024-03-23T05:41:22;11;10;
47810;PMS5003;33575;52.600;7.318;2024-03-23T05:43:53;12;10;
47810;PMS5003;33575;52.600;7.318;2024-03-23T05:46:23;16;11;
47810;PMS5003;33575;52.600;7.318;2024-03-23T05:48:54;13;11;
47810;PMS5003;33575;52.600;7.318;2024-03-23T05:51:24;15;13;
47810;PMS5003;33575;52.600;7.318;2024-03-23T05:53:55;16;13;
47810;PMS5003;33575;52.600;7.318;2024-03-23T05:56:26;11;11;
47810;PMS5003;33575;52.600;7.318;2024-03-23T05:58:57;20;18;
47810;PMS5003;33575;52.600;7.318;2024-03-23T06:01:27;13;12;
47810;PMS5003;33575;52.600;7.318;2024-03-23T06:03:58;15;13;
47810;PMS5003;33575;52.600;7.318;2024-03-23T06:06:28;18;14;
47810;PMS5003;33575;52.600;7.318;2024-03-23T06:08:59;15;13;
47810;PMS5003;33575;52.600;7.318;2024-03-23T06:11:30;22;15;
47810;PMS5003;33575;52.600;7.318;2024-03-23T06:14:01;15;13;
47810;PMS5003;33575;52.600;7.318;2024-03-23T06:16:31;16;12;
47810;PMS5003;33575;52.600;7.318;2024-03-23T06:19:01;16;13;
47810;PMS5003;33575;52.600;7.318;2024-03-23T06:21:32;16;14;
47810;PMS5003;33575;52.600;7.318;2024-03-23T06:24:02;20;15;
47810;PMS5003;33575;52.600;7.318;2024-03-23T06:26:33;17;14;
47810;PMS5003;33575;52.600;7.318;2024-03-23T06:29:03;15;13;
47810;PMS5003;33575;52.600;7.318;2024-03-23T06:31:33;16;14;
47810;PMS5003;33575;52.600;7.318;2024-03-23T06:34:04;15;14;
47810;PMS5003;33575;52.600;7.318;2024-03-23T06:36:35;19;16;
47810;PMS5003;33575;52.600;7.318;2024-03-23T06:39:05;16;15;
47810;PMS5003;33575;52.600;7.318;2024-03-23T06:41:36;17;13;
47810;PMS5003;33575;52.600;7.318;2024-03-23T06:44:06;19;17;
47810;PMS5003;33575;52.600;7.318;2024-03-23T06:46:36;21;16;
47810;PMS5003;33575;52.600;7.318;2024-03-23T06:49:07;25;15;
47810;PMS5003;33575;52.600;7.318;2024-03-23T06:51:38;18;14;
47810;PMS5003;33575;52.600;7.318;2024-03-23T06:54:09;14;13;
47810;PMS5003;33575;52.600;7.318;2024-03-23T06:56:39;11;11;
47810;PMS5003;33575;52.600;7.318;2024-03-23T06:59:09;20;15;
47810;PMS5003;33575;52.600;7.318;2024-03-23T07:01:40;17;16;
47810;PMS5003;33575;52.600;7.318;2024-03-23T07:04:10;18;14;
47810;PMS5003;33575;52.600;7.318;2024-03-23T07:06:42;18;16;
47810;PMS5003;33575;52.600;7.318;2024-03-23T07:09:11;15;14;
47810;PMS5003;33575;52.600;7.318;2024-03-23T07:11:42;18;14;
47810;PMS5003;33575;52.600;7.318;2024-03-23T07:14:12;20;13;
47810;PMS5003;33575;52.600;7.318;2024-03-23T07:16:43;20;16;
47810;PMS5003;33575;52.600;7.318;2024-03-23T07:19:14;17;13;
47810;PMS5003;33575;52.600;7.318;2024-03-23T07:21:45;18;13;
47810;PMS5003;33575;52.600;7.318;2024-03-23T07:24:15;14;13;
47810;PMS5003;33575;52.600;7.318;2024-03-23T07:26:46;15;14;
47810;PMS5003;33575;52.600;7.318;2024-03-23T07:29:17;14;11;
47810;PMS5003;33575;52.600;7.318;2024-03-23T07:31:47;13;12;
47810;PMS5003;33575;52.600;7.318;2024-03-23T07:34:17;17;11;
47810;PMS5003;33575;52.600;7.318;2024-03-23T07:36:48;19;15;
47810;PMS5003;33575;52.600;7.318;2024-03-23T07:39:18;15;10;
47810;PMS5003;33575;52.600;7.318;2024-03-23T07:41:48;11;10;
47810;PMS5003;33575;52.600;7.318;2024-03-23T07:44:19;11;10;
47810;PMS5003;33575;52.600;7.318;2024-03-23T07:46:49;18;11;
47810;PMS5003;33575;52.600;7.318;2024-03-23T07:49:20;12;11;
47810;PMS5003;33575;52.600;7.318;2024-03-23T07:51:51;11;11;
47810;PMS5003;33575;52.600;7.318;2024-03-23T07:54:22;18;15;
47810;PMS5003;33575;52.600;7.318;2024-03-23T07:56:52;15;14;
47810;PMS5003;33575;52.600;7.318;2024-03-23T07:59:23;11;11;
47810;PMS5003;33575;52.600;7.318;2024-03-23T08:01:53;12;10;
47810;PMS5003;33575;52.600;7.318;2024-03-23T08:04:24;13;12;
47810;PMS5003;33575;52.600;7.318;2024-03-23T08:06:55;12;10;
47810;PMS5003;33575;52.600;7.318;2024-03-23T08:09:25;9;9;
47810;PMS5003;33575;52.600;7.318;2024-03-23T08:11:55;14;13;
47810;PMS5003;33575;52.600;7.318;2024-03-23T08:14:26;15;12;
47810;PMS5003;33575;52.600;7.318;2024-03-23T08:16:56;13;11;
47810;PMS5003;33575;52.600;7.318;2024-03-23T08:19:27;12;11;
47810;PMS5003;33575;52.600;7.318;2024-03-23T08:21:58;15;13;
47810;PMS5003;33575;52.600;7.318;2024-03-23T08:24:29;15;11;
47810;PMS5003;33575;52.600;7.318;2024-03-23T08:26:59;12;11;
47810;PMS5003;33575;52.600;7.318;2024-03-23T08:29:30;14;11;
47810;PMS5003;33575;52.600;7.318;2024-03-23T08:32:01;10;9;
47810;PMS5003;33575;52.600;7.318;2024-03-23T08:34:31;7;6;
47810;PMS5003;33575;52.600;7.318;2024-03-23T08:37:02;8;7;
47810;PMS5003;33575;52.600;7.318;2024-03-23T08:39:32;6;5;
47810;PMS5003;33575;52.600;7.318;2024-03-23T08:42:03;8;6;
47810;PMS5003;33575;52.600;7.318;2024-03-23T08:44:33;3;2;
47810;PMS5003;33575;52.600;7.318;2024-03-23T08:47:04;2;2;
47810;PMS5003;33575;52.600;7.318;2024-03-23T08:49:34;2;2;
47810;PMS5003;33575;52.600;7.318;2024-03-23T08:52:05;3;3;
47810;PMS5003;33575;52.600;7.318;2024-03-23T08:54:36;2;2;
47810;PMS5003;33575;52.600;7.318;2024-03-23T08:57:07;4;3;
47810;PMS5003;33575;52.600;7.318;2024-03-23T08:59:37;1;1;
47810;PMS5003;33575;52.600;7.318;2024-03-23T09:02:08;0;0;
47810;PMS5003;33575;52.600;7.318;2024-03-23T09:04:39;0;0;
47810;PMS5003;33575;52.600;7.318;2024-03-23T09:07:09;1;0;
47810;PMS5003;33575;52.600;7.318;2024-03-23T09:09:40;1;1;
47810;PMS5003;33575;52.600;7.318;2024-03-23T09:12:10;3;1;
47810;PMS5003;33575;52.600;7.318;2024-03-23T09:14:41;4;2;
47810;PMS5003;33575;52.600;7.318;2024-03-23T09:17:12;4;3;
47810;PMS5003;33575;52.600;7.318;2024-03-23T09:19:43;1;1;
47810;PMS5003;33575;52.600;7.318;2024-03-23T09:22:13;5;2;
47810;PMS5003;33575;52.600;7.318;2024-03-23T09:24:44;4;3;
47810;PMS5003;33575;52.600;7.318;2024-03-23T09:27:14;3;3;
47810;PMS5003;33575;52.600;7.318;2024-03-23T09:29:45;2;2;
47810;PMS5003;33575;52.600;7.318;2024-03-23T09:32:16;0;0;
47810;PMS5003;33575;52.600;7.318;2024-03-23T09:34:46;1;1;
47810;PMS5003;33575;52.600;7.318;2024-03-23T09:37:17;0;0;
47810;PMS5003;33575;52.600;7.318;2024-03-23T09:39:48;0;0;
47810;PMS5003;33575;52.600;7.318;2024-03-23T09:42:18;0;0;
47810;PMS5003;33575;52.600;7.318;2024-03-23T09:44:49;1;0;
47810;PMS5003;33575;52.600;7.318;2024-03-23T09:47:20;0;0;
47810;PMS5003;33575;52.600;7.318;2024-03-23T09:49:51;1;0;
47810;PMS5003;33575;52.600;7.318;2024-03-23T09:52:21;0;0;
47810;PMS5003;33575;52.600;7.318;2024-03-23T09:54:52;1;0;
47810;PMS5003;33575;52.600;7.318;2024-03-23T09:57:23;1;1;
47810;PMS5003;33575;52.600;7.318;2024-03-23T09:59:53;90;49;
47810;PMS5003;33575;52.600;7.318;2024-03-23T10:02:23;6;5;
47810;PMS5003;33575;52.600;7.318;2024-03-23T10:04:54;5;2;
47810;PMS5003;33575;52.600;7.318;2024-03-23T10:07:25;1;1;
47810;PMS5003;33575;52.600;7.318;2024-03-23T10:09:55;2;2;
47810;PMS5003;33575;52.600;7.318;2024-03-23T10:12:26;4;3;
47810;PMS5003;33575;52.600;7.318;2024-03-23T10:14:57;2;2;
47810;PMS5003;33575;52.600;7.318;2024-03-23T10:17:27;2;2;
47810;PMS5003;33575;52.600;7.318;2024-03-23T10:19:58;3;3;
47810;PMS5003;33575;52.600;7.318;2024-03-23T10:22:29;4;4;
47810;PMS5003;33575;52.600;7.318;2024-03-23T10:25:06;2;2;
47810;PMS5003;33575;52.600;7.318;2024-03-23T10:27:29;73;34;
47810;PMS5003;33575;52.600;7.318;2024-03-23T10:30:07;3;3;
47810;PMS5003;33575;52.600;7.318;2024-03-23T10:32:30;3;3;
47810;PMS5003;33575;52.600;7.318;2024-03-23T10:37:32;2;1;
47810;PMS5003;33575;52.600;7.318;2024-03-23T10:40:02;5;4;
47810;PMS5003;33575;52.600;7.318;2024-03-23T10:42:33;8;6;
47810;PMS5003;33575;52.600;7.318;2024-03-23T10:45:04;7;4;
47810;PMS5003;33575;52.600;7.318;2024-03-23T10:47:34;6;3;
47810;PMS5003;33575;52.600;7.318;2024-03-23T10:50:05;3;3;
47810;PMS5003;33575;52.600;7.318;2024-03-23T10:52:35;3;3;
47810;PMS5003;33575;52.600;7.318;2024-03-23T10:55:06;3;3;
47810;PMS5003;33575;52.600;7.318;2024-03-23T10:57:37;7;6;
47810;PMS5003;33575;52.600;7.318;2024-03-23T11:00:07;8;7;
47810;PMS5003;33575;52.600;7.318;2024-03-23T11:02:37;7;7;
47810;PMS5003;33575;52.600;7.318;2024-03-23T11:12:40;5;5;
47810;PMS5003;33575;52.600;7.318;2024-03-23T11:15:11;10;7;
47810;PMS5003;33575;52.600;7.318;2024-03-23T11:17:40;5;5;
47810;PMS5003;33575;52.600;7.318;2024-03-23T11:20:11;6;6;
47810;PMS5003;33575;52.600;7.318;2024-03-23T11:22:42;7;7;
47810;PMS5003;33575;52.600;7.318;2024-03-23T11:25:13;7;5;
47810;PMS5003;33575;52.600;7.318;2024-03-23T11:27:43;5;4;
47810;PMS5003;33575;52.600;7.318;2024-03-23T11:30:14;7;7;
47810;PMS5003;33575;52.600;7.318;2024-03-23T11:32:44;6;6;
47810;PMS5003;33575;52.600;7.318;2024-03-23T11:37:45;5;5;
47810;PMS5003;33575;52.600;7.318;2024-03-23T11:40:16;8;7;
47810;PMS5003;33575;52.600;7.318;2024-03-23T11:42:46;5;5;
47810;PMS5003;33575;52.600;7.318;2024-03-23T11:45:17;5;5;
47810;PMS5003;33575;52.600;7.318;2024-03-23T11:47:48;8;6;
47810;PMS5003;33575;52.600;7.318;2024-03-23T11:50:20;5;5;
47810;PMS5003;33575;52.600;7.318;2024-03-23T11:52:48;16;11;
47810;PMS5003;33575;52.600;7.318;2024-03-23T11:55:19;6;6;
47810;PMS5003;33575;52.600;7.318;2024-03-23T11:57:50;5;5;
47810;PMS5003;33575;52.600;7.318;2024-03-23T12:00:21;6;5;
47810;PMS5003;33575;52.600;7.318;2024-03-23T12:02:51;3;3;
47810;PMS5003;33575;52.600;7.318;2024-03-23T12:05:22;7;4;
47810;PMS5003;33575;52.600;7.318;2024-03-23T12:07:52;4;4;
47810;PMS5003;33575;52.600;7.318;2024-03-23T12:10:23;5;4;
47810;PMS5003;33575;52.600;7.318;2024-03-23T12:12:59;5;4;
47810;PMS5003;33575;52.600;7.318;2024-03-23T12:15:24;5;5;
47810;PMS5003;33575;52.600;7.318;2024-03-23T12:20:25;6;5;
47810;PMS5003;33575;52.600;7.318;2024-03-23T12:25:27;6;5;
47810;PMS5003;33575;52.600;7.318;2024-03-23T12:27:58;3;2;
47810;PMS5003;33575;52.600;7.318;2024-03-23T12:30:28;3;2;
47810;PMS5003;33575;52.600;7.318;2024-03-23T12:32:59;3;2;
47810;PMS5003;33575;52.600;7.318;2024-03-23T12:35:29;2;2;
47810;PMS5003;33575;52.600;7.318;2024-03-23T12:38:00;4;3;
47810;PMS5003;33575;52.600;7.318;2024-03-23T12:40:31;4;3;
47810;PMS5003;33575;52.600;7.318;2024-03-23T12:43:01;3;3;
47810;PMS5003;33575;52.600;7.318;2024-03-23T12:45:32;4;4;
47810;PMS5003;33575;52.600;7.318;2024-03-23T12:48:03;4;4;
47810;PMS5003;33575;52.600;7.318;2024-03-23T12:50:33;4;3;
47810;PMS5003;33575;52.600;7.318;2024-03-23T12:53:04;5;3;
47810;PMS5003;33575;52.600;7.318;2024-03-23T12:55:35;3;3;
47810;PMS5003;33575;52.600;7.318;2024-03-23T12:58:05;5;4;
47810;PMS5003;33575;52.600;7.318;2024-03-23T13:00:36;5;3;
47810;PMS5003;33575;52.600;7.318;2024-03-23T13:03:07;3;3;
47810;PMS5003;33575;52.600;7.318;2024-03-23T13:05:38;5;3;
47810;PMS5003;33575;52.600;7.318;2024-03-23T13:08:08;3;3;
47810;PMS5003;33575;52.600;7.318;2024-03-23T13:10:39;4;3;
47810;PMS5003;33575;52.600;7.318;2024-03-23T13:13:10;6;6;
47810;PMS5003;33575;52.600;7.318;2024-03-23T13:15:41;10;10;
47810;PMS5003;33575;52.600;7.318;2024-03-23T13:18:12;38;37;
47810;PMS5003;33575;52.600;7.318;2024-03-23T13:20:42;50;48;
47810;PMS5003;33575;52.600;7.318;2024-03-23T13:23:13;48;47;
47810;PMS5003;33575;52.600;7.318;2024-03-23T13:28:13;23;22;
47810;PMS5003;33575;52.600;7.318;2024-03-23T13:33:15;4;4;
47810;PMS5003;33575;52.600;7.318;2024-03-23T13:35:49;4;3;
47810;PMS5003;33575;52.600;7.318;2024-03-23T13:38:18;3;3;
47810;PMS5003;33575;52.600;7.318;2024-03-23T13:40:49;3;3;
47810;PMS5003;33575;52.600;7.318;2024-03-23T13:43:18;3;3;
47810;PMS5003;33575;52.600;7.318;2024-03-23T13:45:49;5;3;
47810;PMS5003;33575;52.600;7.318;2024-03-23T13:48:19;3;3;
47810;PMS5003;33575;52.600;7.318;2024-03-23T13:53:21;6;4;
47810;PMS5003;33575;52.600;7.318;2024-03-23T13:55:51;6;5;
47810;PMS5003;33575;52.600;7.318;2024-03-23T13:58:22;3;3;
47810;PMS5003;33575;52.600;7.318;2024-03-23T14:00:52;8;6;
47810;PMS5003;33575;52.600;7.318;2024-03-23T14:03:23;4;3;
47810;PMS5003;33575;52.600;7.318;2024-03-23T14:05:54;8;5;
47810;PMS5003;33575;52.600;7.318;2024-03-23T14:08:25;5;3;
47810;PMS5003;33575;52.600;7.318;2024-03-23T14:10:55;6;4;
47810;PMS5003;33575;52.600;7.318;2024-03-23T14:13:27;4;3;
47810;PMS5003;33575;52.600;7.318;2024-03-23T14:15:57;2;2;
47810;PMS5003;33575;52.600;7.318;2024-03-23T14:18:28;4;3;
47810;PMS5003;33575;52.600;7.318;2024-03-23T14:20:59;26;12;
47810;PMS5003;33575;52.600;7.318;2024-03-23T14:23:30;5;2;
47810;PMS5003;33575;52.600;7.318;2024-03-23T14:25:59;5;5;
47810;PMS5003;33575;52.600;7.318;2024-03-23T14:28:30;7;5;
47810;PMS5003;33575;52.600;7.318;2024-03-23T14:31:00;8;5;
47810;PMS5003;33575;52.600;7.318;2024-03-23T14:33:30;25;14;
47810;PMS5003;33575;52.600;7.318;2024-03-23T14:36:03;14;10;
47810;PMS5003;33575;52.600;7.318;2024-03-23T14:38:31;7;6;
47810;PMS5003;33575;52.600;7.318;2024-03-23T14:41:02;5;4;
47810;PMS5003;33575;52.600;7.318;2024-03-23T14:43:33;3;3;
47810;PMS5003;33575;52.600;7.318;2024-03-23T14:46:07;4;4;
47810;PMS5003;33575;52.600;7.318;2024-03-23T14:48:34;4;4;
47810;PMS5003;33575;52.600;7.318;2024-03-23T14:51:05;4;3;
47810;PMS5003;33575;52.600;7.318;2024-03-23T14:53:36;3;1;
47810;PMS5003;33575;52.600;7.318;2024-03-23T14:56:06;2;1;
47810;PMS5003;33575;52.600;7.318;2024-03-23T14:58:37;0;0;
47810;PMS5003;33575;52.600;7.318;2024-03-23T15:01:08;0;0;
47810;PMS5003;33575;52.600;7.318;2024-03-23T15:03:38;0;0;
47810;PMS5003;33575;52.600;7.318;2024-03-23T15:06:09;4;2;
47810;PMS5003;33575;52.600;7.318;2024-03-23T15:08:39;46;22;
47810;PMS5003;33575;52.600;7.318;2024-03-23T15:11:09;18;9;
47810;PMS5003;33575;52.600;7.318;2024-03-23T15:13:40;3;2;
47810;PMS5003;33575;52.600;7.318;2024-03-23T15:16:11;7;4;
47810;PMS5003;33575;52.600;7.318;2024-03-23T15:18:41;7;5;
47810;PMS5003;33575;52.600;7.318;2024-03-23T15:21:12;11;8;
47810;PMS5003;33575;52.600;7.318;2024-03-23T15:23:43;4;4;
47810;PMS5003;33575;52.600;7.318;2024-03-23T15:26:13;6;4;
47810;PMS5003;33575;52.600;7.318;2024-03-23T15:28:47;4;2;
47810;PMS5003;33575;52.600;7.318;2024-03-23T15:31:14;6;4;
47810;PMS5003;33575;52.600;7.318;2024-03-23T15:33:45;2;2;
47810;PMS5003;33575;52.600;7.318;2024-03-23T15:36:16;1;1;
47810;PMS5003;33575;52.600;7.318;2024-03-23T15:38:46;3;3;
47810;PMS5003;33575;52.600;7.318;2024-03-23T15:41:17;1;1;
47810;PMS5003;33575;52.600;7.318;2024-03-23T15:43:48;3;3;
47810;PMS5003;33575;52.600;7.318;2024-03-23T15:46:18;5;3;
47810;PMS5003;33575;52.600;7.318;2024-03-23T15:48:49;1;1;
47810;PMS5003;33575;52.600;7.318;2024-03-23T15:51:20;2;2;
47810;PMS5003;33575;52.600;7.318;2024-03-23T15:53:51;2;2;
47810;PMS5003;33575;52.600;7.318;2024-03-23T15:56:21;3;2;
47810;PMS5003;33575;52.600;7.318;2024-03-23T15:58:52;0;0;
47810;PMS5003;33575;52.600;7.318;2024-03-23T16:01:23;3;2;
47810;PMS5003;33575;52.600;7.318;2024-03-23T16:03:53;2;2;
47810;PMS5003;33575;52.600;7.318;2024-03-23T16:06:24;2;2;
47810;PMS5003;33575;52.600;7.318;2024-03-23T16:08:55;3;3;
47810;PMS5003;33575;52.600;7.318;2024-03-23T16:11:25;2;2;
47810;PMS5003;33575;52.600;7.318;2024-03-23T16:13:56;4;4;
47810;PMS5003;33575;52.600;7.318;2024-03-23T16:16:27;3;3;
47810;PMS5003;33575;52.600;7.318;2024-03-23T16:18:58;3;3;
47810;PMS5003;33575;52.600;7.318;2024-03-23T16:21:28;2;1;
47810;PMS5003;33575;52.600;7.318;2024-03-23T16:23:59;0;0;
47810;PMS5003;33575;52.600;7.318;2024-03-23T16:26:34;1;1;
47810;PMS5003;33575;52.600;7.318;2024-03-23T16:29:00;0;0;
47810;PMS5003;33575;52.600;7.318;2024-03-23T16:31:31;7;7;
47810;PMS5003;33575;52.600;7.318;2024-03-23T16:34:02;9;5;
47810;PMS5003;33575;52.600;7.318;2024-03-23T16:36:32;43;43;
47810;PMS5003;33575;52.600;7.318;2024-03-23T16:39:02;38;38;
47810;PMS5003;33575;52.600;7.318;2024-03-23T16:41:33;55;55;
47810;PMS5003;33575;52.600;7.318;2024-03-23T16:44:04;52;52;
47810;PMS5003;33575;52.600;7.318;2024-03-23T16:46:35;33;33;
47810;PMS5003;33575;52.600;7.318;2024-03-23T16:49:06;13;12;
47810;PMS5003;33575;52.600;7.318;2024-03-23T16:51:36;11;6;
47810;PMS5003;33575;52.600;7.318;2024-03-23T16:54:06;6;4;
47810;PMS5003;33575;52.600;7.318;2024-03-23T16:56:37;3;3;
47810;PMS5003;33575;52.600;7.318;2024-03-23T16:59:07;3;3;
47810;PMS5003;33575;52.600;7.318;2024-03-23T17:01:38;6;3;
47810;PMS5003;33575;52.600;7.318;2024-03-23T17:04:09;4;4;
47810;PMS5003;33575;52.600;7.318;2024-03-23T17:06:40;5;4;
47810;PMS5003;33575;52.600;7.318;2024-03-23T17:09:10;4;3;
47810;PMS5003;33575;52.600;7.318;2024-03-23T17:11:41;2;2;
47810;PMS5003;33575;52.600;7.318;2024-03-23T17:14:12;5;4;
47810;PMS5003;33575;52.600;7.318;2024-03-23T17:16:42;3;3;
47810;PMS5003;33575;52.600;7.318;2024-03-23T17:19:13;4;3;
47810;PMS5003;33575;52.600;7.318;2024-03-23T17:21:44;5;4;
47810;PMS5003;33575;52.600;7.318;2024-03-23T17:24:14;4;3;
47810;PMS5003;33575;52.600;7.318;2024-03-23T17:26:45;4;2;
47810;PMS5003;33575;52.600;7.318;2024-03-23T17:29:16;4;3;
47810;PMS5003;33575;52.600;7.318;2024-03-23T17:31:47;4;3;
47810;PMS5003;33575;52.600;7.318;2024-03-23T17:34:17;3;3;
47810;PMS5003;33575;52.600;7.318;2024-03-23T17:36:48;4;4;
47810;PMS5003;33575;52.600;7.318;2024-03-23T17:39:19;2;2;
47810;PMS5003;33575;52.600;7.318;2024-03-23T17:41:50;9;4;
47810;PMS5003;33575;52.600;7.318;2024-03-23T17:44:20;3;2;
47810;PMS5003;33575;52.600;7.318;2024-03-23T17:46:51;3;3;
47810;PMS5003;33575;52.600;7.318;2024-03-23T17:49:21;3;2;
47810;PMS5003;33575;52.600;7.318;2024-03-23T17:51:52;4;4;
47810;PMS5003;33575;52.600;7.318;2024-03-23T17:54:23;2;2;
47810;PMS5003;33575;52.600;7.318;2024-03-23T17:56:54;6;4;
47810;PMS5003;33575;52.600;7.318;2024-03-23T17:59:25;4;4;
47810;PMS5003;33575;52.600;7.318;2024-03-23T18:01:55;4;3;
47810;PMS5003;33575;52.600;7.318;2024-03-23T18:04:25;2;2;
47810;PMS5003;33575;52.600;7.318;2024-03-23T18:06:56;2;2;
47810;PMS5003;33575;52.600;7.318;2024-03-23T18:09:27;3;3;
47810;PMS5003;33575;52.600;7.318;2024-03-23T18:11:58;3;2;
47810;PMS5003;33575;52.600;7.318;2024-03-23T18:14:28;3;3;
47810;PMS5003;33575;52.600;7.318;2024-03-23T18:16:59;3;3;
47810;PMS5003;33575;52.600;7.318;2024-03-23T18:19:30;2;2;
47810;PMS5003;33575;52.600;7.318;2024-03-23T18:22:00;4;4;